Time;durP1;ratioP1;P1;durP2;ratioP2;P2;SDS_P1;SDS_P2;PMS_P1;PMS_P2;Temp;Humidity;BMP_temperature;BMP_pressure;BME280_temperature;BME280_humidity;BME280_pressure;Samples;Min_cycle;Max_cycle;Signal;HPM_P1;HPM_P2
2021/11/08 00:00:28;;;;;;;20.17;6.90;;;;;;;;;;4868350;29;20230;-86
2021/11/08 00:03:00;;;;;;;24.20;8.27;;;;;;;;;;4855594;29;20483;-85
2021/11/08 00:05:29;;;;;;;11.33;7.10;;;;;;;;;;4868750;29;20239;-85
2021/11/08 00:08:02;;;;;;;13.85;8.25;;;;;;;;;;4871392;29;20499;-85
2021/11/08 00:10:33;;;;;;;18.43;7.10;;;;;;;;;;4891759;29;20233;-85
2021/11/08 00:13:04;;;;;;;23.73;7.53;;;;;;;;;;4886664;29;20477;-85
2021/11/08 00:15:38;;;;;;;9.97;6.87;;;;;;;;;;4891041;29;20480;-85
2021/11/08 00:18:12;;;;;;;16.30;7.77;;;;;;;;;;4880441;29;20474;-85
2021/11/08 00:20:43;;;;;;;19.00;8.10;;;;;;;;;;4877468;29;20471;-85
2021/11/08 00:23:17;;;;;;;17.80;7.00;;;;;;;;;;4886877;29;20866;-85
2021/11/08 00:25:45;;;;;;;20.63;8.10;;;;;;;;;;4883879;29;20475;-86
2021/11/08 00:28:15;;;;;;;19.70;7.33;;;;;;;;;;4883317;29;20482;-85
2021/11/08 00:30:44;;;;;;;14.15;8.73;;;;;;;;;;4889582;29;20481;-86
2021/11/08 00:33:15;;;;;;;14.85;8.82;;;;;;;;;;4899642;29;20237;-85
2021/11/08 00:35:44;;;;;;;12.43;7.07;;;;;;;;;;4879177;29;20316;-86
2021/11/08 00:38:13;;;;;;;16.77;8.27;;;;;;;;;;4915880;29;20481;-85
2021/11/08 00:40:42;;;;;;;14.73;7.17;;;;;;;;;;4915516;29;20236;-85
2021/11/08 00:43:13;;;;;;;17.57;8.30;;;;;;;;;;4913695;29;20478;-85
2021/11/08 00:45:41;;;;;;;12.67;7.07;;;;;;;;;;4902294;29;20470;-85
2021/11/08 00:48:10;;;;;;;23.38;9.48;;;;;;;;;;4894593;29;20478;-85
2021/11/08 00:50:42;;;;;;;21.65;9.38;;;;;;;;;;4882562;29;20241;-85
2021/11/08 00:53:10;;;;;;;13.57;7.90;;;;;;;;;;4878283;29;20230;-85
2021/11/08 00:55:41;;;;;;;15.30;8.40;;;;;;;;;;4882314;29;20486;-85
2021/11/08 00:58:15;;;;;;;16.92;9.57;;;;;;;;;;4874814;29;20646;-84
2021/11/08 01:00:43;;;;;;;18.13;8.10;;;;;;;;;;4870270;29;20247;-85
2021/11/08 01:03:15;;;;;;;17.60;8.00;;;;;;;;;;4869133;29;20517;-85
2021/11/08 01:05:45;;;;;;;14.10;8.17;;;;;;;;;;4878544;29;20961;-84
2021/11/08 01:08:13;;;;;;;20.57;7.30;;;;;;;;;;4875821;29;20527;-86
2021/11/08 01:10:41;;;;;;;15.33;7.87;;;;;;;;;;4873715;29;20507;-85
2021/11/08 01:13:10;;;;;;;15.97;8.83;;;;;;;;;;4867525;29;20479;-85
2021/11/08 01:15:38;;;;;;;16.17;8.50;;;;;;;;;;4866531;29;20481;-85
2021/11/08 01:18:08;;;;;;;18.30;8.77;;;;;;;;;;4862465;29;20479;-84
2021/11/08 01:20:45;;;;;;;13.07;7.60;;;;;;;;;;4878854;29;20483;-85
2021/11/08 01:23:15;;;;;;;11.43;7.10;;;;;;;;;;4864843;29;20486;-84
2021/11/08 01:25:45;;;;;;;14.83;7.67;;;;;;;;;;4861697;29;20488;-85
2021/11/08 01:28:14;;;;;;;16.67;8.33;;;;;;;;;;4867899;29;20479;-84
2021/11/08 01:30:42;;;;;;;14.93;8.47;;;;;;;;;;4860763;29;20479;-85
2021/11/08 01:33:16;;;;;;;13.97;8.13;;;;;;;;;;4866302;29;20483;-86
2021/11/08 01:35:45;;;;;;;17.93;8.60;;;;;;;;;;4878440;29;20479;-86
2021/11/08 01:38:24;;;;;;;14.73;7.47;;;;;;;;;;4889279;29;20486;-85
2021/11/08 01:40:53;;;;;;;14.63;8.97;;;;;;;;;;4896683;29;20458;-86
2021/11/08 01:43:22;;;;;;;15.10;8.30;;;;;;;;;;4883211;29;20821;-87
2021/11/08 01:45:52;;;;;;;36.60;8.23;;;;;;;;;;4878421;29;20490;-87
2021/11/08 01:48:24;;;;;;;23.07;8.53;;;;;;;;;;4872423;29;20503;-87
2021/11/08 01:50:53;;;;;;;20.75;10.88;;;;;;;;;;4889532;29;21230;-87
2021/11/08 01:53:23;;;;;;;19.47;8.77;;;;;;;;;;4886318;29;20599;-86
2021/11/08 01:55:52;;;;;;;12.37;7.63;;;;;;;;;;4868433;29;20831;-86
2021/11/08 01:58:22;;;;;;;16.23;8.13;;;;;;;;;;4879474;29;20864;-86
2021/11/08 02:00:51;;;;;;;22.80;7.97;;;;;;;;;;4878812;29;20483;-86
2021/11/08 02:03:19;;;;;;;14.17;7.83;;;;;;;;;;4871600;29;20475;-86
2021/11/08 02:05:48;;;;;;;15.03;7.30;;;;;;;;;;4889767;29;20513;-86
2021/11/08 02:08:17;;;;;;;13.93;8.17;;;;;;;;;;4881811;29;20998;-86
2021/11/08 02:10:48;;;;;;;16.00;8.00;;;;;;;;;;4884208;29;20475;-86
2021/11/08 02:13:16;;;;;;;23.17;9.52;;;;;;;;;;4880313;29;20480;-86
2021/11/08 02:15:45;;;;;;;15.33;8.00;;;;;;;;;;4852088;29;20230;-87
2021/11/08 02:18:14;;;;;;;23.92;10.82;;;;;;;;;;4865394;29;20483;-87
2021/11/08 02:20:47;;;;;;;23.40;9.77;;;;;;;;;;4887044;29;20550;-86
2021/11/08 02:23:15;;;;;;;18.80;8.70;;;;;;;;;;4880307;29;20243;-86
2021/11/08 02:25:44;;;;;;;13.10;7.80;;;;;;;;;;4879478;29;20482;-86
2021/11/08 02:28:13;;;;;;;17.73;7.33;;;;;;;;;;4878394;29;20525;-86
2021/11/08 02:30:43;;;;;;;16.47;8.13;;;;;;;;;;4866090;29;20479;-86
2021/11/08 02:33:13;;;;;;;17.93;7.63;;;;;;;;;;4862901;29;21024;-87
2021/11/08 02:35:41;;;;;;;12.17;7.47;;;;;;;;;;4870359;29;20472;-86
2021/11/08 02:38:15;;;;;;;15.80;8.23;;;;;;;;;;4881446;29;20487;-86
2021/11/08 02:40:43;;;;;;;16.13;8.13;;;;;;;;;;4881042;29;20479;-87
2021/11/08 02:43:20;;;;;;;17.23;8.77;;;;;;;;;;4875887;29;20478;-87
2021/11/08 02:45:51;;;;;;;16.97;7.97;;;;;;;;;;4878173;29;20477;-86
2021/11/08 02:48:20;;;;;;;16.13;8.37;;;;;;;;;;4875267;29;20580;-86
2021/11/08 02:50:54;;;;;;;15.87;7.83;;;;;;;;;;4871905;29;20489;-86
2021/11/08 02:53:25;;;;;;;13.87;8.03;;;;;;;;;;4881390;29;20476;-86
2021/11/08 02:55:53;;;;;;;14.40;9.07;;;;;;;;;;4882328;29;20851;-87
2021/11/08 02:58:23;;;;;;;23.83;8.60;;;;;;;;;;4877113;29;20234;-86
2021/11/08 03:00:54;;;;;;;21.73;9.03;;;;;;;;;;4878506;29;21029;-86
2021/11/08 03:03:28;;;;;;;14.73;8.63;;;;;;;;;;4883298;29;21179;-86
2021/11/08 03:06:03;;;;;;;20.50;9.10;;;;;;;;;;4882435;29;20491;-86
2021/11/08 03:08:32;;;;;;;23.80;7.90;;;;;;;;;;4876351;29;20993;-86
2021/11/08 03:11:01;;;;;;;22.47;8.90;;;;;;;;;;4875291;29;20475;-86
2021/11/08 03:13:34;;;;;;;11.93;7.83;;;;;;;;;;4869974;29;20474;-86
2021/11/08 03:16:08;;;;;;;20.57;9.03;;;;;;;;;;4864789;29;20474;-84
2021/11/08 03:18:40;;;;;;;20.27;10.07;;;;;;;;;;4886791;29;20477;-85
2021/11/08 03:21:15;;;;;;;14.40;8.93;;;;;;;;;;4868216;29;20632;-85
2021/11/08 03:23:47;;;;;;;13.17;8.53;;;;;;;;;;4876127;29;20521;-85
2021/11/08 03:26:28;;;;;;;16.77;7.93;;;;;;;;;;4883240;29;20478;-85
2021/11/08 03:28:56;;;;;;;24.50;9.47;;;;;;;;;;4874601;29;20494;-85
2021/11/08 03:31:26;;;;;;;14.57;8.17;;;;;;;;;;4881259;29;20487;-85
2021/11/08 03:33:55;;;;;;;15.00;8.10;;;;;;;;;;4872378;29;20471;-85
2021/11/08 03:36:23;;;;;;;15.80;7.87;;;;;;;;;;4885068;29;20841;-85
2021/11/08 03:38:55;;;;;;;21.67;7.47;;;;;;;;;;4888269;29;20505;-88
2021/11/08 03:41:23;;;;;;;16.50;8.43;;;;;;;;;;4876443;29;20485;-88
2021/11/08 03:43:53;;;;;;;14.23;7.60;;;;;;;;;;4878652;29;20490;-88
2021/11/08 03:46:21;;;;;;;20.63;8.47;;;;;;;;;;4870357;29;20486;-87
2021/11/08 03:48:50;;;;;;;16.63;7.97;;;;;;;;;;4881346;29;20495;-88
2021/11/08 03:51:18;;;;;;;11.97;6.93;;;;;;;;;;4880507;29;20468;-87
2021/11/08 03:53:46;;;;;;;17.15;9.00;;;;;;;;;;4876338;29;20474;-88
2021/11/08 03:56:19;;;;;;;16.17;7.30;;;;;;;;;;4875526;29;20701;-88
2021/11/08 03:58:47;;;;;;;13.10;7.90;;;;;;;;;;4873538;29;20502;-87
2021/11/08 04:01:16;;;;;;;27.47;9.13;;;;;;;;;;4876866;29;20562;-88
2021/11/08 04:03:46;;;;;;;11.90;7.67;;;;;;;;;;4882289;29;20490;-87
2021/11/08 04:06:17;;;;;;;19.60;8.73;;;;;;;;;;4887299;29;20482;-88
2021/11/08 04:08:45;;;;;;;18.73;8.33;;;;;;;;;;4887301;29;20479;-87
2021/11/08 04:11:13;;;;;;;13.87;8.00;;;;;;;;;;4894455;29;20480;-88
2021/11/08 04:13:43;;;;;;;21.30;8.67;;;;;;;;;;4885659;29;20478;-87
2021/11/08 04:16:14;;;;;;;16.23;8.20;;;;;;;;;;4878156;29;20479;-88
2021/11/08 04:18:47;;;;;;;22.07;8.40;;;;;;;;;;4872195;29;20486;-88
2021/11/08 04:21:15;;;;;;;18.73;8.40;;;;;;;;;;4887660;29;20617;-87
2021/11/08 04:23:44;;;;;;;16.95;9.02;;;;;;;;;;4877072;29;20482;-88
2021/11/08 04:26:13;;;;;;;19.47;9.40;;;;;;;;;;4879744;29;20890;-88
2021/11/08 04:28:51;;;;;;;15.87;7.40;;;;;;;;;;4895022;29;20845;-88
2021/11/08 04:31:22;;;;;;;12.73;7.73;;;;;;;;;;4895419;29;20981;-88
2021/11/08 04:33:52;;;;;;;14.43;8.60;;;;;;;;;;4891756;29;20474;-87
2021/11/08 04:39:22;;;;;;;20.43;9.20;;;;;;;;;;4882028;29;20654;-87
2021/11/08 04:41:58;;;;;;;18.27;10.25;;;;;;;;;;4891293;29;20471;-87
2021/11/08 04:44:55;;;;;;;16.33;8.73;;;;;;;;;;4877804;29;20234;-88
2021/11/08 04:50:21;;;;;;;16.37;7.67;;;;;;;;;;4851004;29;20463;-88
2021/11/08 04:53:13;;;;;;;30.43;9.77;;;;;;;;;;4895488;29;20478;-88
2021/11/08 05:21:15;;;;;;;27.83;13.43;;;;;;;;;;4862633;29;20242;-87
2021/11/08 05:32:19;;;;;;;15.07;11.07;;;;;;;;;;4876390;29;20226;-87
2021/11/08 05:34:49;;;;;;;19.30;11.82;;;;;;;;;;4846370;29;21120;-87
2021/11/08 05:37:17;;;;;;;19.43;10.57;;;;;;;;;;4862909;29;20246;-88
2021/11/08 05:39:49;;;;;;;18.40;9.07;;;;;;;;;;4853257;29;20475;-87
2021/11/08 05:42:20;;;;;;;16.70;9.17;;;;;;;;;;4875319;29;20482;-88
2021/11/08 05:44:49;;;;;;;18.47;8.63;;;;;;;;;;4872798;29;20958;-87
2021/11/08 05:47:18;;;;;;;22.00;8.33;;;;;;;;;;4863137;29;20870;-87
2021/11/08 05:49:46;;;;;;;20.27;10.98;;;;;;;;;;4870446;29;20487;-87
2021/11/08 05:52:17;;;;;;;21.15;11.25;;;;;;;;;;4889825;29;20237;-87
2021/11/08 05:54:47;;;;;;;16.03;9.17;;;;;;;;;;4887800;29;20230;-87
2021/11/08 06:50:10;;;;;;;19.40;9.90;;;;;;;;;;4876440;29;20228;-86
2021/11/08 06:52:39;;;;;;;19.10;10.30;;;;;;;;;;4885544;29;20475;-89
2021/11/08 06:55:08;;;;;;;17.90;9.00;;;;;;;;;;4885845;29;20468;-88
2021/11/08 06:57:45;;;;;;;16.47;9.57;;;;;;;;;;4880812;29;20486;-88
2021/11/08 07:00:14;;;;;;;23.23;12.00;;;;;;;;;;4891158;29;21082;-88
2021/11/08 07:02:42;;;;;;;17.27;10.80;;;;;;;;;;4862562;29;20484;-88
2021/11/08 07:05:11;;;;;;;17.70;9.80;;;;;;;;;;4879285;29;20479;-88
2021/11/08 07:07:39;;;;;;;17.80;10.70;;;;;;;;;;4880201;29;20491;-88
2021/11/08 07:10:08;;;;;;;33.38;19.98;;;;;;;;;;4865914;29;20238;-87
2021/11/08 07:12:37;;;;;;;16.23;10.37;;;;;;;;;;4860870;29;20227;-88
2021/11/08 07:15:06;;;;;;;18.75;11.52;;;;;;;;;;4873082;29;20545;-86
2021/11/08 07:17:35;;;;;;;16.30;10.10;;;;;;;;;;4865003;29;20227;-86
2021/11/08 07:20:04;;;;;;;12.60;8.83;;;;;;;;;;4873356;29;20482;-86
2021/11/08 07:22:32;;;;;;;28.23;11.83;;;;;;;;;;4867041;29;20467;-86
2021/11/08 07:25:03;;;;;;;20.53;10.07;;;;;;;;;;4850931;29;20476;-86
2021/11/08 07:27:31;;;;;;;14.60;8.40;;;;;;;;;;4857393;29;21007;-86
2021/11/08 07:30:01;;;;;;;17.30;10.20;;;;;;;;;;4854913;29;20991;-86
2021/11/08 07:32:29;;;;;;;17.42;10.73;;;;;;;;;;4877392;29;20484;-86
2021/11/08 07:34:58;;;;;;;24.03;8.63;;;;;;;;;;4863029;29;20242;-86
2021/11/08 07:37:26;;;;;;;19.37;8.97;;;;;;;;;;4882126;29;20483;-86
2021/11/08 07:39:55;;;;;;;19.93;10.40;;;;;;;;;;4878539;29;20487;-85
2021/11/08 07:42:23;;;;;;;24.05;11.65;;;;;;;;;;4882305;29;21344;-86
2021/11/08 07:44:51;;;;;;;19.73;10.80;;;;;;;;;;4867546;29;20234;-86
2021/11/08 07:47:21;;;;;;;16.33;10.00;;;;;;;;;;4878608;29;20238;-86
2021/11/08 07:49:49;;;;;;;29.00;9.53;;;;;;;;;;4888664;29;20484;-86
2021/11/08 07:52:17;;;;;;;26.23;9.53;;;;;;;;;;4878108;29;20485;-86
2021/11/08 07:54:47;;;;;;;17.67;10.68;;;;;;;;;;4868865;29;20479;-86
2021/11/08 07:57:15;;;;;;;17.97;11.17;;;;;;;;;;4870039;29;20250;-86
2021/11/08 07:59:45;;;;;;;19.00;10.23;;;;;;;;;;4864898;29;20517;-86
2021/11/08 08:02:14;;;;;;;14.63;8.97;;;;;;;;;;4866080;29;21051;-86
2021/11/08 08:04:43;;;;;;;18.00;11.53;;;;;;;;;;4872627;29;20561;-86
2021/11/08 08:07:12;;;;;;;29.30;16.13;;;;;;;;;;4885068;29;20475;-86
2021/11/08 08:09:40;;;;;;;16.77;10.40;;;;;;;;;;4887860;29;20238;-86
2021/11/08 08:12:09;;;;;;;19.20;12.48;;;;;;;;;;4887063;29;20484;-86
2021/11/08 08:14:39;;;;;;;29.98;18.52;;;;;;;;;;4867946;29;20230;-86
2021/11/08 08:17:08;;;;;;;21.67;11.07;;;;;;;;;;4883326;29;20226;-86
2021/11/08 08:19:36;;;;;;;18.30;12.27;;;;;;;;;;4884983;29;20481;-86
2021/11/08 08:22:08;;;;;;;20.43;11.80;;;;;;;;;;4890106;29;20479;-86
2021/11/08 08:24:36;;;;;;;31.90;19.53;;;;;;;;;;4870187;29;20981;-86
2021/11/08 08:27:04;;;;;;;33.10;19.13;;;;;;;;;;4891371;29;20490;-86
2021/11/08 08:29:33;;;;;;;25.33;12.23;;;;;;;;;;4879559;29;20482;-86
2021/11/08 08:32:02;;;;;;;38.10;23.30;;;;;;;;;;4863300;29;21057;-86
2021/11/08 08:34:48;;;;;;;36.37;18.83;;;;;;;;;;4881800;29;20341;-86
2021/11/08 08:37:19;;;;;;;22.27;13.53;;;;;;;;;;4883713;29;20477;-86
2021/11/08 08:39:47;;;;;;;36.30;21.10;;;;;;;;;;4882082;29;20520;-87
2021/11/08 08:42:16;;;;;;;39.57;22.17;;;;;;;;;;4886927;29;20467;-85
2021/11/08 08:44:44;;;;;;;37.90;23.03;;;;;;;;;;4879418;29;20489;-86
2021/11/08 08:47:12;;;;;;;35.10;22.37;;;;;;;;;;4868022;29;20486;-86
2021/11/08 08:49:41;;;;;;;35.87;21.47;;;;;;;;;;4881043;29;20485;-86
2021/11/08 08:52:10;;;;;;;43.67;23.20;;;;;;;;;;4892247;29;20483;-85
2021/11/08 08:54:40;;;;;;;38.53;21.80;;;;;;;;;;4880755;29;20480;-86
2021/11/08 08:57:09;;;;;;;35.60;21.73;;;;;;;;;;4874382;29;20479;-86
2021/11/08 08:59:38;;;;;;;30.53;14.77;;;;;;;;;;4883223;29;20490;-86
2021/11/08 09:02:08;;;;;;;44.67;21.27;;;;;;;;;;4874400;29;20493;-87
2021/11/08 09:04:37;;;;;;;31.37;20.43;;;;;;;;;;4872477;29;20471;-87
2021/11/08 09:07:05;;;;;;;31.83;21.70;;;;;;;;;;4878560;29;20493;-87
2021/11/08 09:09:34;;;;;;;40.83;22.17;;;;;;;;;;4882237;29;20478;-87
2021/11/08 09:12:04;;;;;;;34.17;22.07;;;;;;;;;;4859547;29;20493;-87
2021/11/08 09:14:33;;;;;;;39.43;22.67;;;;;;;;;;4890401;29;20479;-87
2021/11/08 09:17:03;;;;;;;36.87;22.97;;;;;;;;;;4876343;29;20848;-87
2021/11/08 09:19:32;;;;;;;40.97;24.27;;;;;;;;;;4875986;29;20509;-87
2021/11/08 09:22:01;;;;;;;45.00;24.77;;;;;;;;;;4896121;29;21102;-87
2021/11/08 09:24:29;;;;;;;43.70;27.50;;;;;;;;;;4885793;29;20995;-87
2021/11/08 09:26:57;;;;;;;44.03;26.97;;;;;;;;;;4876226;29;20494;-87
2021/11/08 09:29:27;;;;;;;43.07;26.07;;;;;;;;;;4849223;29;20495;-87
2021/11/08 09:31:55;;;;;;;44.33;23.80;;;;;;;;;;4862357;29;20467;-87
2021/11/08 09:34:24;;;;;;;41.97;26.07;;;;;;;;;;4849255;29;20484;-87
2021/11/08 09:36:57;;;;;;;43.83;27.27;;;;;;;;;;4875351;29;20469;-87
2021/11/08 09:39:27;;;;;;;41.97;25.70;;;;;;;;;;4872961;29;20473;-87
2021/11/08 09:41:58;;;;;;;51.43;27.23;;;;;;;;;;4864199;29;20476;-88
2021/11/08 09:44:28;;;;;;;45.77;28.97;;;;;;;;;;4869740;29;20478;-88
2021/11/08 09:46:57;;;;;;;45.93;27.13;;;;;;;;;;4877169;29;21002;-87
2021/11/08 09:49:26;;;;;;;42.60;26.37;;;;;;;;;;4884530;29;20484;-87
2021/11/08 09:51:54;;;;;;;50.80;26.80;;;;;;;;;;4887896;29;21001;-87
2021/11/08 09:54:27;;;;;;;46.93;27.70;;;;;;;;;;4888981;29;20496;-87
2021/11/08 09:56:57;;;;;;;47.23;27.37;;;;;;;;;;4881855;29;20476;-87
2021/11/08 09:59:31;;;;;;;57.43;27.70;;;;;;;;;;4876253;29;20496;-87
2021/11/08 10:02:00;;;;;;;50.97;28.37;;;;;;;;;;4863686;29;20500;-87
2021/11/08 10:04:28;;;;;;;51.30;27.27;;;;;;;;;;4872074;29;20483;-87
2021/11/08 10:06:57;;;;;;;51.17;27.23;;;;;;;;;;4888888;29;20653;-88
2021/11/08 10:09:31;;;;;;;54.47;28.07;;;;;;;;;;4882860;29;20476;-87
2021/11/08 10:12:00;;;;;;;52.07;28.80;;;;;;;;;;4876014;29;20554;-87
2021/11/08 10:14:30;;;;;;;46.63;28.03;;;;;;;;;;4880369;29;20503;-87
2021/11/08 10:17:01;;;;;;;47.20;30.80;;;;;;;;;;4859144;29;20589;-88
2021/11/08 10:19:32;;;;;;;54.87;28.50;;;;;;;;;;4887352;29;20496;-88
2021/11/08 10:22:01;;;;;;;55.47;30.67;;;;;;;;;;4890958;29;20467;-88
2021/11/08 10:24:30;;;;;;;44.87;27.80;;;;;;;;;;4885800;29;20483;-88
2021/11/08 10:27:02;;;;;;;53.97;29.13;;;;;;;;;;4880649;29;20474;-88
2021/11/08 10:29:32;;;;;;;50.43;29.20;;;;;;;;;;4888256;29;20478;-87
2021/11/08 10:32:08;;;;;;;51.37;29.43;;;;;;;;;;4885560;29;20561;-87
2021/11/08 10:34:45;;;;;;;53.13;28.33;;;;;;;;;;4878650;29;21215;-87
2021/11/08 10:37:22;;;;;;;54.67;28.03;;;;;;;;;;4890078;29;20568;-88
2021/11/08 10:39:51;;;;;;;44.80;27.17;;;;;;;;;;4879235;29;20984;-88
2021/11/08 10:42:22;;;;;;;50.93;28.17;;;;;;;;;;4876723;29;20478;-88
2021/11/08 10:44:53;;;;;;;50.57;28.20;;;;;;;;;;4874682;29;21024;-89
2021/11/08 10:47:21;;;;;;;54.53;29.20;;;;;;;;;;4887116;29;20551;-89
2021/11/08 10:49:55;;;;;;;54.93;30.37;;;;;;;;;;4872638;29;20489;-88
2021/11/08 10:52:28;;;;;;;50.10;27.47;;;;;;;;;;4855234;29;20464;-88
2021/11/08 10:54:57;;;;;;;50.80;29.33;;;;;;;;;;4875068;29;20476;-88
2021/11/08 10:57:27;;;;;;;48.80;28.60;;;;;;;;;;4874850;29;20477;-88
2021/11/08 10:59:58;;;;;;;54.17;29.13;;;;;;;;;;4883255;29;20535;-88
2021/11/08 11:02:27;;;;;;;60.73;28.03;;;;;;;;;;4858400;29;20474;-88
2021/11/08 11:04:58;;;;;;;55.73;28.07;;;;;;;;;;4876587;29;20490;-88
2021/11/08 11:07:27;;;;;;;52.03;28.07;;;;;;;;;;4890819;29;20533;-88
2021/11/08 11:09:57;;;;;;;57.23;26.43;;;;;;;;;;4877807;29;20486;-89
2021/11/08 11:12:27;;;;;;;56.93;29.27;;;;;;;;;;4885866;29;20471;-88
2021/11/08 11:14:58;;;;;;;50.13;26.73;;;;;;;;;;4880850;29;20484;-88
2021/11/08 11:17:27;;;;;;;55.13;28.63;;;;;;;;;;4879624;29;20821;-88
2021/11/08 11:20:04;;;;;;;44.30;25.30;;;;;;;;;;4871877;29;20483;-87
2021/11/08 11:22:34;;;;;;;52.03;30.17;;;;;;;;;;4879129;29;20478;-88
2021/11/08 11:25:04;;;;;;;54.07;27.93;;;;;;;;;;4879624;29;20854;-89
2021/11/08 11:27:34;;;;;;;55.27;26.93;;;;;;;;;;4885170;29;20490;-88
2021/11/08 11:30:12;;;;;;;50.03;28.20;;;;;;;;;;4886594;29;21038;-88
2021/11/08 11:32:40;;;;;;;47.67;28.00;;;;;;;;;;4884703;29;20482;-89
2021/11/08 11:35:15;;;;;;;53.83;28.90;;;;;;;;;;4866398;29;20481;-86
2021/11/08 11:37:56;;;;;;;51.93;27.27;;;;;;;;;;4874443;29;21157;-86
2021/11/08 11:40:25;;;;;;;55.27;28.37;;;;;;;;;;4873304;29;20478;-86
2021/11/08 11:42:56;;;;;;;56.27;27.53;;;;;;;;;;4875379;29;20979;-86
2021/11/08 11:45:26;;;;;;;48.30;28.47;;;;;;;;;;4870864;29;20474;-87
2021/11/08 11:47:58;;;;;;;49.17;27.47;;;;;;;;;;4873456;29;20477;-87
2021/11/08 11:50:27;;;;;;;52.17;28.87;;;;;;;;;;4880552;29;20545;-86
2021/11/08 11:52:56;;;;;;;46.17;27.33;;;;;;;;;;4870305;29;20509;-86
2021/11/08 11:55:24;;;;;;;50.67;27.97;;;;;;;;;;4831421;29;20990;-86
2021/11/08 11:57:55;;;;;;;53.17;27.63;;;;;;;;;;4845105;29;20484;-86
2021/11/08 12:00:24;;;;;;;51.27;28.10;;;;;;;;;;4849331;29;20499;-86
2021/11/08 12:02:53;;;;;;;44.73;27.00;;;;;;;;;;4859300;29;20510;-86
2021/11/08 12:05:25;;;;;;;51.20;26.63;;;;;;;;;;4841311;29;20671;-86
2021/11/08 12:07:54;;;;;;;51.70;26.93;;;;;;;;;;4867037;29;20491;-87
2021/11/08 12:10:22;;;;;;;45.30;25.77;;;;;;;;;;4853655;29;21195;-86
2021/11/08 12:12:51;;;;;;;45.07;26.67;;;;;;;;;;4856306;29;20481;-86
2021/11/08 12:15:26;;;;;;;47.93;26.27;;;;;;;;;;4853119;29;20488;-86
2021/11/08 12:17:57;;;;;;;50.03;25.80;;;;;;;;;;4844384;29;20995;-86
2021/11/08 12:20:27;;;;;;;48.43;25.50;;;;;;;;;;4854105;29;20490;-86
2021/11/08 12:22:56;;;;;;;44.47;25.63;;;;;;;;;;4855385;29;20591;-85
2021/11/08 12:25:25;;;;;;;58.83;26.80;;;;;;;;;;4841802;29;20517;-85
2021/11/08 12:27:55;;;;;;;50.03;26.87;;;;;;;;;;4857214;29;20498;-85
2021/11/08 12:30:28;;;;;;;48.67;27.07;;;;;;;;;;4857297;29;20487;-84
2021/11/08 12:32:58;;;;;;;48.57;26.20;;;;;;;;;;4856068;29;21466;-85
2021/11/08 12:35:31;;;;;;;47.70;26.17;;;;;;;;;;4865193;29;20477;-85
2021/11/08 12:37:59;;;;;;;46.23;25.57;;;;;;;;;;4871761;29;20960;-85
2021/11/08 12:40:31;;;;;;;53.20;26.07;;;;;;;;;;4857931;29;20561;-84
2021/11/08 12:43:00;;;;;;;51.13;26.23;;;;;;;;;;4849011;29;20481;-84
2021/11/08 12:45:30;;;;;;;50.60;25.53;;;;;;;;;;4857287;29;20485;-84
2021/11/08 12:48:01;;;;;;;51.97;25.73;;;;;;;;;;4869134;29;20488;-84
2021/11/08 12:50:33;;;;;;;48.43;26.17;;;;;;;;;;4863168;29;20485;-84
2021/11/08 12:53:01;;;;;;;45.83;25.80;;;;;;;;;;4868871;29;20485;-84
2021/11/08 12:55:40;;;;;;;54.03;27.00;;;;;;;;;;4858600;29;20473;-85
2021/11/08 12:58:08;;;;;;;48.97;27.33;;;;;;;;;;4851350;29;20512;-85
2021/11/08 13:00:39;;;;;;;46.73;25.67;;;;;;;;;;4855778;29;20482;-84
2021/11/08 13:03:14;;;;;;;45.80;25.40;;;;;;;;;;4860333;29;20480;-85
2021/11/08 13:05:45;;;;;;;52.17;26.87;;;;;;;;;;4864629;29;20495;-81
2021/11/08 13:08:21;;;;;;;45.20;26.30;;;;;;;;;;4839807;29;20855;-87
2021/11/08 13:10:57;;;;;;;42.13;24.77;;;;;;;;;;4865846;29;20489;-87
2021/11/08 13:13:25;;;;;;;50.33;26.83;;;;;;;;;;4850182;29;20904;-87
2021/11/08 13:16:01;;;;;;;50.43;26.60;;;;;;;;;;4851328;29;20495;-87
2021/11/08 13:18:37;;;;;;;52.23;26.30;;;;;;;;;;4852489;29;20469;-86
2021/11/08 13:21:05;;;;;;;52.23;26.23;;;;;;;;;;4859098;29;20483;-87
2021/11/08 13:23:36;;;;;;;48.57;26.47;;;;;;;;;;4858720;29;20483;-87
2021/11/08 13:26:06;;;;;;;49.00;26.07;;;;;;;;;;4854656;29;20481;-87
2021/11/08 13:28:37;;;;;;;48.27;26.83;;;;;;;;;;4845491;29;20574;-87
2021/11/08 13:31:08;;;;;;;49.97;26.63;;;;;;;;;;4851984;29;20486;-86
2021/11/08 13:33:39;;;;;;;42.53;24.60;;;;;;;;;;4867332;29;20485;-87
2021/11/08 13:36:08;;;;;;;42.90;25.07;;;;;;;;;;4879730;29;20558;-87
2021/11/08 13:38:38;;;;;;;53.77;26.80;;;;;;;;;;4878671;29;21059;-83
2021/11/08 13:41:07;;;;;;;47.30;26.57;;;;;;;;;;4876817;29;20498;-84
2021/11/08 13:43:39;;;;;;;47.27;25.10;;;;;;;;;;4895819;29;20997;-87
2021/11/08 13:46:11;;;;;;;43.20;24.10;;;;;;;;;;4889444;29;20484;-87
2021/11/08 13:48:43;;;;;;;42.37;24.13;;;;;;;;;;4885798;29;20504;-87
2021/11/08 13:51:28;;;;;;;43.90;25.90;;;;;;;;;;4896348;29;21039;-87
2021/11/08 13:53:58;;;;;;;47.00;25.97;;;;;;;;;;4899722;29;20489;-86
2021/11/08 13:56:31;;;;;;;43.47;25.50;;;;;;;;;;4895299;29;20512;-87
2021/11/08 13:59:01;;;;;;;39.57;24.00;;;;;;;;;;4889609;29;20489;-86
2021/11/08 14:01:31;;;;;;;38.20;23.43;;;;;;;;;;4892899;29;20552;-86
2021/11/08 14:04:00;;;;;;;46.17;23.83;;;;;;;;;;4887834;29;20489;-86
2021/11/08 14:06:30;;;;;;;39.67;23.57;;;;;;;;;;4908422;29;21016;-86
2021/11/08 14:09:00;;;;;;;37.17;22.77;;;;;;;;;;4895128;29;20495;-89
2021/11/08 14:11:30;;;;;;;39.73;22.90;;;;;;;;;;4887099;29;20476;-87
2021/11/08 14:14:06;;;;;;;40.00;23.07;;;;;;;;;;4889736;29;20478;-87
2021/11/08 14:16:35;;;;;;;41.70;23.53;;;;;;;;;;4882178;29;20483;-87
2021/11/08 14:19:05;;;;;;;43.07;24.27;;;;;;;;;;4890178;29;20512;-90
2021/11/08 14:21:34;;;;;;;38.57;21.30;;;;;;;;;;4887956;29;20474;-81
2021/11/08 14:24:04;;;;;;;38.70;23.23;;;;;;;;;;4879595;29;20488;-82
2021/11/08 14:26:32;;;;;;;41.80;23.50;;;;;;;;;;4876321;29;20907;-82
2021/11/08 14:29:09;;;;;;;43.20;24.57;;;;;;;;;;4873954;29;20491;-82
2021/11/08 14:31:37;;;;;;;38.70;23.07;;;;;;;;;;4884919;29;21028;-82
2021/11/08 14:34:11;;;;;;;37.33;20.93;;;;;;;;;;4878610;29;21186;-82
2021/11/08 14:36:44;;;;;;;39.87;24.07;;;;;;;;;;4889712;29;20468;-82
2021/11/08 14:39:13;;;;;;;35.93;20.80;;;;;;;;;;4890123;29;22106;-82
2021/11/08 14:41:50;;;;;;;50.63;23.87;;;;;;;;;;4877549;29;20465;-82
2021/11/08 14:44:19;;;;;;;49.90;23.53;;;;;;;;;;4887473;29;20584;-82
2021/11/08 14:46:50;;;;;;;42.87;24.93;;;;;;;;;;4876282;29;20484;-82
2021/11/08 14:49:21;;;;;;;39.03;24.13;;;;;;;;;;4874996;29;20489;-82
2021/11/08 14:51:50;;;;;;;44.80;23.83;;;;;;;;;;4843264;29;20494;-82
2021/11/08 14:54:18;;;;;;;37.73;21.83;;;;;;;;;;4843071;29;20481;-86
2021/11/08 14:56:53;;;;;;;56.40;25.40;;;;;;;;;;4851676;29;20481;-87
2021/11/08 14:59:29;;;;;;;39.77;24.70;;;;;;;;;;4848931;29;20983;-86
2021/11/08 15:02:06;;;;;;;47.67;24.67;;;;;;;;;;4856089;29;20494;-87
2021/11/08 15:04:43;;;;;;;38.67;22.63;;;;;;;;;;4861375;29;20549;-86
2021/11/08 15:07:12;;;;;;;42.67;25.23;;;;;;;;;;4847240;29;20567;-87
2021/11/08 15:09:41;;;;;;;49.93;26.07;;;;;;;;;;4879593;29;20503;-85
2021/11/08 15:12:17;;;;;;;40.10;25.80;;;;;;;;;;4882855;29;20492;-83
2021/11/08 15:14:49;;;;;;;45.23;25.97;;;;;;;;;;4895044;29;20491;-83
2021/11/08 15:17:30;;;;;;;45.37;26.17;;;;;;;;;;4897193;29;20507;-83
2021/11/08 15:20:08;;;;;;;40.27;22.10;;;;;;;;;;4887547;29;20539;-83
2021/11/08 15:22:37;;;;;;;47.17;27.17;;;;;;;;;;4897797;29;20494;-82
2021/11/08 15:25:12;;;;;;;48.57;26.83;;;;;;;;;;4891126;29;20556;-83
2021/11/08 15:27:42;;;;;;;43.13;25.00;;;;;;;;;;4882473;29;20967;-85
2021/11/08 15:30:11;;;;;;;43.00;25.00;;;;;;;;;;4881064;29;20545;-85
2021/11/08 15:32:39;;;;;;;64.17;26.60;;;;;;;;;;4894785;29;20500;-85
2021/11/08 15:35:10;;;;;;;39.07;24.63;;;;;;;;;;4866475;29;20503;-85
2021/11/08 15:37:48;;;;;;;41.20;24.40;;;;;;;;;;4888944;29;20478;-85
2021/11/08 15:40:16;;;;;;;39.03;22.90;;;;;;;;;;4890353;29;20468;-85
2021/11/08 15:42:44;;;;;;;39.93;24.40;;;;;;;;;;4877775;29;20508;-84
2021/11/08 15:45:13;;;;;;;41.30;25.13;;;;;;;;;;4871784;29;20480;-85
2021/11/08 15:47:41;;;;;;;42.60;24.43;;;;;;;;;;4885350;29;20506;-84
2021/11/08 15:50:11;;;;;;;42.60;21.97;;;;;;;;;;4885608;29;20556;-85
2021/11/08 15:52:40;;;;;;;38.30;22.03;;;;;;;;;;4890687;29;20499;-88
2021/11/08 15:55:08;;;;;;;37.87;22.67;;;;;;;;;;4879500;29;20871;-88
2021/11/08 15:57:37;;;;;;;39.67;24.50;;;;;;;;;;4891580;29;20566;-89
2021/11/08 16:00:06;;;;;;;46.23;25.67;;;;;;;;;;4875335;29;20511;-89
2021/11/08 16:02:36;;;;;;;36.60;22.67;;;;;;;;;;4877125;29;20478;-88
2021/11/08 16:05:07;;;;;;;45.63;27.60;;;;;;;;;;4884920;29;20479;-88
2021/11/08 16:07:38;;;;;;;37.00;22.17;;;;;;;;;;4896828;29;20467;-89
2021/11/08 16:10:13;;;;;;;33.43;21.53;;;;;;;;;;4889761;29;20561;-90
2021/11/08 16:12:42;;;;;;;34.97;21.13;;;;;;;;;;4892035;29;20468;-89